sensor_id;sensor_type;location;lat;lon;timestamp;P1;durP1;ratioP1;P2;durP2;ratioP2
19595;SDS011;9945;46.010;8.946;2023-03-01T00:00:03;15.73;;;14.10;;
19595;SDS011;9945;46.010;8.946;2023-03-01T00:02:32;16.57;;;13.97;;
19595;SDS011;9945;46.010;8.946;2023-03-01T00:05:00;14.57;;;13.07;;
19595;SDS011;9945;46.010;8.946;2023-03-01T00:07:27;16.90;;;13.73;;
19595;SDS011;9945;46.010;8.946;2023-03-01T00:09:54;15.23;;;13.23;;
19595;SDS011;9945;46.010;8.946;2023-03-01T00:12:21;16.37;;;14.20;;
19595;SDS011;9945;46.010;8.946;2023-03-01T00:14:48;15.57;;;13.77;;
19595;SDS011;9945;46.010;8.946;2023-03-01T00:17:15;15.23;;;13.63;;
19595;SDS011;9945;46.010;8.946;2023-03-01T00:19:42;14.80;;;13.30;;
19595;SDS011;9945;46.010;8.946;2023-03-01T00:22:10;15.73;;;14.07;;
19595;SDS011;9945;46.010;8.946;2023-03-01T00:24:37;17.43;;;14.03;;
19595;SDS011;9945;46.010;8.946;2023-03-01T00:27:04;15.13;;;13.63;;
19595;SDS011;9945;46.010;8.946;2023-03-01T00:29:31;15.07;;;13.47;;
19595;SDS011;9945;46.010;8.946;2023-03-01T00:31:58;14.33;;;12.83;;
19595;SDS011;9945;46.010;8.946;2023-03-01T00:34:25;15.33;;;13.67;;
19595;SDS011;9945;46.010;8.946;2023-03-01T00:36:52;15.10;;;13.50;;
19595;SDS011;9945;46.010;8.946;2023-03-01T00:39:20;15.50;;;13.80;;
19595;SDS011;9945;46.010;8.946;2023-03-01T00:41:47;16.43;;;14.23;;
19595;SDS011;9945;46.010;8.946;2023-03-01T00:44:14;14.63;;;13.17;;
19595;SDS011;9945;46.010;8.946;2023-03-01T00:46:41;17.00;;;15.20;;
19595;SDS011;9945;46.010;8.946;2023-03-01T00:49:08;18.93;;;15.20;;
19595;SDS011;9945;46.010;8.946;2023-03-01T00:51:35;17.60;;;14.47;;
19595;SDS011;9945;46.010;8.946;2023-03-01T00:54:02;14.93;;;13.37;;
19595;SDS011;9945;46.010;8.946;2023-03-01T00:56:30;18.00;;;14.83;;
19595;SDS011;9945;46.010;8.946;2023-03-01T00:58:58;15.73;;;13.87;;
19595;SDS011;9945;46.010;8.946;2023-03-01T01:01:25;16.10;;;13.73;;
19595;SDS011;9945;46.010;8.946;2023-03-01T01:03:56;15.17;;;13.67;;
19595;SDS011;9945;46.010;8.946;2023-03-01T01:06:24;14.03;;;12.43;;
19595;SDS011;9945;46.010;8.946;2023-03-01T01:08:53;14.70;;;13.13;;
19595;SDS011;9945;46.010;8.946;2023-03-01T01:11:21;16.00;;;13.33;;
19595;SDS011;9945;46.010;8.946;2023-03-01T01:13:50;14.93;;;13.10;;
19595;SDS011;9945;46.010;8.946;2023-03-01T01:16:19;12.90;;;11.57;;
19595;SDS011;9945;46.010;8.946;2023-03-01T01:18:47;14.70;;;12.80;;
19595;SDS011;9945;46.010;8.946;2023-03-01T01:21:15;14.33;;;11.50;;
19595;SDS011;9945;46.010;8.946;2023-03-01T01:23:44;14.30;;;11.80;;
19595;SDS011;9945;46.010;8.946;2023-03-01T01:26:12;12.10;;;10.87;;
19595;SDS011;9945;46.010;8.946;2023-03-01T01:28:41;12.63;;;11.03;;
19595;SDS011;9945;46.010;8.946;2023-03-01T01:31:10;13.47;;;12.07;;
19595;SDS011;9945;46.010;8.946;2023-03-01T01:33:37;14.00;;;11.83;;
19595;SDS011;9945;46.010;8.946;2023-03-01T01:36:04;12.80;;;11.47;;
19595;SDS011;9945;46.010;8.946;2023-03-01T01:38:32;13.23;;;11.87;;
19595;SDS011;9945;46.010;8.946;2023-03-01T01:40:59;13.23;;;11.93;;
19595;SDS011;9945;46.010;8.946;2023-03-01T01:43:27;14.20;;;11.67;;
19595;SDS011;9945;46.010;8.946;2023-03-01T01:45:55;13.33;;;11.37;;
19595;SDS011;9945;46.010;8.946;2023-03-01T01:48:28;13.57;;;11.57;;
19595;SDS011;9945;46.010;8.946;2023-03-01T01:51:05;14.40;;;12.90;;
19595;SDS011;9945;46.010;8.946;2023-03-01T01:53:35;13.43;;;12.00;;
19595;SDS011;9945;46.010;8.946;2023-03-01T01:56:05;15.20;;;12.00;;
19595;SDS011;9945;46.010;8.946;2023-03-01T01:58:34;14.03;;;12.20;;
19595;SDS011;9945;46.010;8.946;2023-03-01T02:01:04;12.63;;;11.33;;
19595;SDS011;9945;46.010;8.946;2023-03-01T02:03:33;12.90;;;11.40;;
19595;SDS011;9945;46.010;8.946;2023-03-01T02:06:10;12.67;;;11.37;;
19595;SDS011;9945;46.010;8.946;2023-03-01T02:08:41;12.20;;;11.00;;
19595;SDS011;9945;46.010;8.946;2023-03-01T02:11:10;15.33;;;11.43;;
19595;SDS011;9945;46.010;8.946;2023-03-01T02:13:39;12.67;;;11.40;;
19595;SDS011;9945;46.010;8.946;2023-03-01T02:16:08;12.67;;;11.20;;
19595;SDS011;9945;46.010;8.946;2023-03-01T02:18:38;12.33;;;11.03;;
19595;SDS011;9945;46.010;8.946;2023-03-01T02:21:08;12.67;;;11.23;;
19595;SDS011;9945;46.010;8.946;2023-03-01T02:23:55;12.87;;;11.53;;
19595;SDS011;9945;46.010;8.946;2023-03-01T02:26:27;11.37;;;9.97;;
19595;SDS011;9945;46.010;8.946;2023-03-01T02:29:01;11.37;;;9.90;;
19595;SDS011;9945;46.010;8.946;2023-03-01T02:31:28;11.73;;;9.87;;
19595;SDS011;9945;46.010;8.946;2023-03-01T02:34:11;12.03;;;10.80;;
19595;SDS011;9945;46.010;8.946;2023-03-01T02:36:43;13.07;;;10.43;;
19595;SDS011;9945;46.010;8.946;2023-03-01T02:39:12;11.20;;;10.00;;
19595;SDS011;9945;46.010;8.946;2023-03-01T02:41:46;10.70;;;9.60;;
19595;SDS011;9945;46.010;8.946;2023-03-01T02:44:17;10.93;;;9.83;;
19595;SDS011;9945;46.010;8.946;2023-03-01T02:46:45;12.20;;;11.00;;
19595;SDS011;9945;46.010;8.946;2023-03-01T02:49:18;12.23;;;9.90;;
19595;SDS011;9945;46.010;8.946;2023-03-01T02:51:51;10.93;;;9.93;;
19595;SDS011;9945;46.010;8.946;2023-03-01T02:54:36;12.50;;;10.10;;
19595;SDS011;9945;46.010;8.946;2023-03-01T02:57:09;12.07;;;10.83;;
19595;SDS011;9945;46.010;8.946;2023-03-01T02:59:37;12.20;;;11.00;;
19595;SDS011;9945;46.010;8.946;2023-03-01T03:02:07;11.10;;;10.00;;
19595;SDS011;9945;46.010;8.946;2023-03-01T03:04:45;13.63;;;11.20;;
19595;SDS011;9945;46.010;8.946;2023-03-01T03:07:12;10.10;;;9.13;;
19595;SDS011;9945;46.010;8.946;2023-03-01T03:09:40;9.73;;;8.77;;
19595;SDS011;9945;46.010;8.946;2023-03-01T03:12:06;10.60;;;9.60;;
19595;SDS011;9945;46.010;8.946;2023-03-01T03:14:33;10.17;;;9.23;;
19595;SDS011;9945;46.010;8.946;2023-03-01T03:17:01;11.23;;;10.00;;
19595;SDS011;9945;46.010;8.946;2023-03-01T03:19:31;10.63;;;9.63;;
19595;SDS011;9945;46.010;8.946;2023-03-01T03:21:58;12.97;;;9.70;;
19595;SDS011;9945;46.010;8.946;2023-03-01T03:24:25;9.90;;;8.90;;
19595;SDS011;9945;46.010;8.946;2023-03-01T03:26:52;10.83;;;9.83;;
19595;SDS011;9945;46.010;8.946;2023-03-01T03:29:19;9.63;;;8.63;;
19595;SDS011;9945;46.010;8.946;2023-03-01T03:31:46;10.10;;;9.17;;
19595;SDS011;9945;46.010;8.946;2023-03-01T03:34:14;11.17;;;10.07;;
19595;SDS011;9945;46.010;8.946;2023-03-01T03:36:43;9.73;;;8.70;;
19595;SDS011;9945;46.010;8.946;2023-03-01T03:39:09;10.57;;;9.50;;
19595;SDS011;9945;46.010;8.946;2023-03-01T03:41:36;10.50;;;9.33;;
19595;SDS011;9945;46.010;8.946;2023-03-01T03:44:03;10.07;;;9.03;;
19595;SDS011;9945;46.010;8.946;2023-03-01T03:46:30;9.67;;;8.67;;
19595;SDS011;9945;46.010;8.946;2023-03-01T03:48:57;9.77;;;8.73;;
19595;SDS011;9945;46.010;8.946;2023-03-01T03:51:25;9.80;;;8.80;;
19595;SDS011;9945;46.010;8.946;2023-03-01T03:53:52;10.43;;;9.47;;
19595;SDS011;9945;46.010;8.946;2023-03-01T03:56:19;12.20;;;9.53;;
19595;SDS011;9945;46.010;8.946;2023-03-01T03:58:51;12.40;;;9.40;;
19595;SDS011;9945;46.010;8.946;2023-03-01T04:01:17;9.70;;;8.77;;
19595;SDS011;9945;46.010;8.946;2023-03-01T04:03:44;10.10;;;8.83;;
19595;SDS011;9945;46.010;8.946;2023-03-01T04:06:12;10.97;;;8.47;;
19595;SDS011;9945;46.010;8.946;2023-03-01T04:08:41;10.10;;;9.10;;
19595;SDS011;9945;46.010;8.946;2023-03-01T04:11:08;9.87;;;8.87;;
19595;SDS011;9945;46.010;8.946;2023-03-01T04:13:54;9.80;;;8.87;;
19595;SDS011;9945;46.010;8.946;2023-03-01T04:16:22;9.97;;;9.03;;
19595;SDS011;9945;46.010;8.946;2023-03-01T04:18:50;11.73;;;9.33;;
19595;SDS011;9945;46.010;8.946;2023-03-01T04:21:17;9.67;;;8.77;;
19595;SDS011;9945;46.010;8.946;2023-03-01T04:23:46;10.43;;;8.53;;
19595;SDS011;9945;46.010;8.946;2023-03-01T04:26:13;10.47;;;9.37;;
19595;SDS011;9945;46.010;8.946;2023-03-01T04:28:41;9.77;;;8.87;;
19595;SDS011;9945;46.010;8.946;2023-03-01T04:31:10;9.73;;;8.83;;
19595;SDS011;9945;46.010;8.946;2023-03-01T04:33:43;10.03;;;9.03;;
19595;SDS011;9945;46.010;8.946;2023-03-01T04:36:11;10.00;;;9.03;;
19595;SDS011;9945;46.010;8.946;2023-03-01T04:38:39;10.23;;;9.20;;
19595;SDS011;9945;46.010;8.946;2023-03-01T04:41:08;11.67;;;9.10;;
19595;SDS011;9945;46.010;8.946;2023-03-01T04:43:37;9.90;;;8.33;;
19595;SDS011;9945;46.010;8.946;2023-03-01T04:46:05;10.07;;;9.10;;
19595;SDS011;9945;46.010;8.946;2023-03-01T04:48:34;10.03;;;9.03;;
19595;SDS011;9945;46.010;8.946;2023-03-01T04:51:01;9.87;;;8.87;;
19595;SDS011;9945;46.010;8.946;2023-03-01T04:53:29;11.13;;;10.03;;
19595;SDS011;9945;46.010;8.946;2023-03-01T04:55:57;10.13;;;8.87;;
19595;SDS011;9945;46.010;8.946;2023-03-01T04:58:26;10.93;;;9.87;;
19595;SDS011;9945;46.010;8.946;2023-03-01T05:00:53;11.63;;;10.43;;
19595;SDS011;9945;46.010;8.946;2023-03-01T05:03:21;11.70;;;10.37;;
19595;SDS011;9945;46.010;8.946;2023-03-01T05:05:50;11.13;;;10.03;;
19595;SDS011;9945;46.010;8.946;2023-03-01T05:08:18;12.63;;;11.33;;
19595;SDS011;9945;46.010;8.946;2023-03-01T05:10:47;12.13;;;10.83;;
19595;SDS011;9945;46.010;8.946;2023-03-01T05:13:16;11.57;;;10.37;;
19595;SDS011;9945;46.010;8.946;2023-03-01T05:15:48;11.70;;;10.10;;
19595;SDS011;9945;46.010;8.946;2023-03-01T05:18:21;11.93;;;9.47;;
19595;SDS011;9945;46.010;8.946;2023-03-01T05:20:51;11.10;;;9.07;;
19595;SDS011;9945;46.010;8.946;2023-03-01T05:23:18;10.33;;;9.30;;
19595;SDS011;9945;46.010;8.946;2023-03-01T05:25:45;9.33;;;8.50;;
19595;SDS011;9945;46.010;8.946;2023-03-01T05:28:12;11.70;;;10.27;;
19595;SDS011;9945;46.010;8.946;2023-03-01T05:30:39;11.30;;;10.10;;
19595;SDS011;9945;46.010;8.946;2023-03-01T05:33:08;11.53;;;10.27;;
19595;SDS011;9945;46.010;8.946;2023-03-01T05:35:38;12.20;;;10.83;;
19595;SDS011;9945;46.010;8.946;2023-03-01T05:38:06;12.43;;;10.83;;
19595;SDS011;9945;46.010;8.946;2023-03-01T05:40:34;11.53;;;10.13;;
19595;SDS011;9945;46.010;8.946;2023-03-01T05:43:01;11.60;;;10.33;;
19595;SDS011;9945;46.010;8.946;2023-03-01T05:45:30;12.07;;;9.27;;
19595;SDS011;9945;46.010;8.946;2023-03-01T05:47:58;10.10;;;9.10;;
19595;SDS011;9945;46.010;8.946;2023-03-01T05:50:27;9.90;;;9.00;;
19595;SDS011;9945;46.010;8.946;2023-03-01T05:52:59;10.20;;;9.13;;
19595;SDS011;9945;46.010;8.946;2023-03-01T05:55:27;9.77;;;8.87;;
19595;SDS011;9945;46.010;8.946;2023-03-01T05:57:56;10.83;;;9.73;;
19595;SDS011;9945;46.010;8.946;2023-03-01T06:00:24;10.97;;;9.77;;
19595;SDS011;9945;46.010;8.946;2023-03-01T06:02:53;10.97;;;9.87;;
19595;SDS011;9945;46.010;8.946;2023-03-01T06:05:20;10.20;;;9.23;;
19595;SDS011;9945;46.010;8.946;2023-03-01T06:07:49;9.97;;;8.97;;
19595;SDS011;9945;46.010;8.946;2023-03-01T06:10:16;12.70;;;9.73;;
19595;SDS011;9945;46.010;8.946;2023-03-01T06:12:44;11.20;;;9.67;;
19595;SDS011;9945;46.010;8.946;2023-03-01T06:15:12;10.43;;;9.33;;
19595;SDS011;9945;46.010;8.946;2023-03-01T06:17:41;9.73;;;8.80;;
19595;SDS011;9945;46.010;8.946;2023-03-01T06:20:10;10.27;;;9.17;;
19595;SDS011;9945;46.010;8.946;2023-03-01T06:22:38;9.97;;;9.07;;
19595;SDS011;9945;46.010;8.946;2023-03-01T06:25:07;10.20;;;9.20;;
19595;SDS011;9945;46.010;8.946;2023-03-01T06:27:35;9.90;;;8.87;;
19595;SDS011;9945;46.010;8.946;2023-03-01T06:30:02;9.23;;;8.27;;
19595;SDS011;9945;46.010;8.946;2023-03-01T06:32:29;9.90;;;8.90;;
19595;SDS011;9945;46.010;8.946;2023-03-01T06:34:57;10.80;;;9.07;;
19595;SDS011;9945;46.010;8.946;2023-03-01T06:37:24;9.13;;;8.33;;
19595;SDS011;9945;46.010;8.946;2023-03-01T06:39:51;10.13;;;9.13;;
19595;SDS011;9945;46.010;8.946;2023-03-01T06:42:19;12.47;;;9.93;;
19595;SDS011;9945;46.010;8.946;2023-03-01T06:44:46;10.00;;;8.77;;
19595;SDS011;9945;46.010;8.946;2023-03-01T06:47:13;9.47;;;8.67;;
19595;SDS011;9945;46.010;8.946;2023-03-01T06:49:40;11.23;;;10.13;;
19595;SDS011;9945;46.010;8.946;2023-03-01T06:52:07;13.83;;;10.53;;
19595;SDS011;9945;46.010;8.946;2023-03-01T06:54:34;15.93;;;12.07;;
19595;SDS011;9945;46.010;8.946;2023-03-01T06:57:01;19.27;;;10.70;;
19595;SDS011;9945;46.010;8.946;2023-03-01T06:59:29;11.03;;;9.83;;
19595;SDS011;9945;46.010;8.946;2023-03-01T07:01:56;9.77;;;8.80;;
19595;SDS011;9945;46.010;8.946;2023-03-01T07:04:23;10.47;;;9.40;;
19595;SDS011;9945;46.010;8.946;2023-03-01T07:06:50;11.17;;;9.97;;
19595;SDS011;9945;46.010;8.946;2023-03-01T07:09:20;11.03;;;9.83;;
19595;SDS011;9945;46.010;8.946;2023-03-01T07:11:47;12.73;;;9.77;;
19595;SDS011;9945;46.010;8.946;2023-03-01T07:14:14;12.77;;;10.93;;
19595;SDS011;9945;46.010;8.946;2023-03-01T07:16:42;13.50;;;11.30;;
19595;SDS011;9945;46.010;8.946;2023-03-01T07:19:09;14.30;;;12.27;;
19595;SDS011;9945;46.010;8.946;2023-03-01T07:21:36;13.07;;;11.73;;
19595;SDS011;9945;46.010;8.946;2023-03-01T07:24:04;14.83;;;13.20;;
19595;SDS011;9945;46.010;8.946;2023-03-01T07:26:32;16.03;;;12.47;;
19595;SDS011;9945;46.010;8.946;2023-03-01T07:28:59;12.70;;;11.50;;
19595;SDS011;9945;46.010;8.946;2023-03-01T07:31:26;13.37;;;12.07;;
19595;SDS011;9945;46.010;8.946;2023-03-01T07:33:55;22.50;;;12.20;;
19595;SDS011;9945;46.010;8.946;2023-03-01T07:36:22;14.90;;;12.90;;
19595;SDS011;9945;46.010;8.946;2023-03-01T07:38:49;22.83;;;15.97;;
19595;SDS011;9945;46.010;8.946;2023-03-01T07:41:16;19.30;;;15.23;;
19595;SDS011;9945;46.010;8.946;2023-03-01T07:43:43;33.47;;;21.30;;
19595;SDS011;9945;46.010;8.946;2023-03-01T07:46:10;16.00;;;13.77;;
19595;SDS011;9945;46.010;8.946;2023-03-01T07:48:37;15.50;;;13.37;;
19595;SDS011;9945;46.010;8.946;2023-03-01T07:51:05;18.77;;;14.87;;
19595;SDS011;9945;46.010;8.946;2023-03-01T07:53:33;16.77;;;13.37;;
19595;SDS011;9945;46.010;8.946;2023-03-01T07:56:01;17.00;;;13.87;;
19595;SDS011;9945;46.010;8.946;2023-03-01T07:58:29;15.30;;;13.70;;
19595;SDS011;9945;46.010;8.946;2023-03-01T08:00:56;16.43;;;14.10;;
19595;SDS011;9945;46.010;8.946;2023-03-01T08:03:26;16.60;;;14.43;;
19595;SDS011;9945;46.010;8.946;2023-03-01T08:05:53;13.20;;;11.90;;
19595;SDS011;9945;46.010;8.946;2023-03-01T08:08:21;21.83;;;13.87;;
19595;SDS011;9945;46.010;8.946;2023-03-01T08:10:48;15.63;;;13.83;;
19595;SDS011;9945;46.010;8.946;2023-03-01T08:13:15;15.40;;;13.90;;
19595;SDS011;9945;46.010;8.946;2023-03-01T08:15:47;14.43;;;12.87;;
19595;SDS011;9945;46.010;8.946;2023-03-01T08:18:14;14.83;;;13.10;;
19595;SDS011;9945;46.010;8.946;2023-03-01T08:20:41;15.87;;;13.90;;
19595;SDS011;9945;46.010;8.946;2023-03-01T08:23:08;18.70;;;14.67;;
19595;SDS011;9945;46.010;8.946;2023-03-01T08:25:36;18.47;;;13.33;;
19595;SDS011;9945;46.010;8.946;2023-03-01T08:28:03;17.63;;;14.33;;
19595;SDS011;9945;46.010;8.946;2023-03-01T08:30:30;17.60;;;14.10;;
19595;SDS011;9945;46.010;8.946;2023-03-01T08:32:58;17.03;;;14.30;;
19595;SDS011;9945;46.010;8.946;2023-03-01T08:35:25;16.30;;;14.50;;
19595;SDS011;9945;46.010;8.946;2023-03-01T08:37:52;17.27;;;15.07;;
19595;SDS011;9945;46.010;8.946;2023-03-01T08:40:18;16.33;;;14.63;;
19595;SDS011;9945;46.010;8.946;2023-03-01T08:42:47;16.10;;;14.43;;
19595;SDS011;9945;46.010;8.946;2023-03-01T08:45:13;18.40;;;15.07;;
19595;SDS011;9945;46.010;8.946;2023-03-01T08:47:43;18.83;;;15.10;;
19595;SDS011;9945;46.010;8.946;2023-03-01T08:50:10;17.13;;;15.27;;
19595;SDS011;9945;46.010;8.946;2023-03-01T08:52:37;16.23;;;14.53;;
19595;SDS011;9945;46.010;8.946;2023-03-01T08:55:05;16.70;;;13.87;;
19595;SDS011;9945;46.010;8.946;2023-03-01T08:57:32;16.47;;;14.77;;
19595;SDS011;9945;46.010;8.946;2023-03-01T09:00:00;16.87;;;15.07;;
19595;SDS011;9945;46.010;8.946;2023-03-01T09:02:28;15.47;;;13.97;;
19595;SDS011;9945;46.010;8.946;2023-03-01T09:04:55;16.90;;;15.20;;
19595;SDS011;9945;46.010;8.946;2023-03-01T09:07:21;18.23;;;14.47;;
19595;SDS011;9945;46.010;8.946;2023-03-01T09:09:53;17.07;;;15.37;;
19595;SDS011;9945;46.010;8.946;2023-03-01T09:12:20;17.03;;;15.03;;
19595;SDS011;9945;46.010;8.946;2023-03-01T09:14:47;16.93;;;14.00;;
19595;SDS011;9945;46.010;8.946;2023-03-01T09:17:15;17.10;;;15.40;;
19595;SDS011;9945;46.010;8.946;2023-03-01T09:19:42;16.20;;;14.57;;
19595;SDS011;9945;46.010;8.946;2023-03-01T09:22:09;17.60;;;14.70;;
19595;SDS011;9945;46.010;8.946;2023-03-01T09:24:36;18.43;;;16.43;;
19595;SDS011;9945;46.010;8.946;2023-03-01T09:27:03;17.67;;;15.87;;
19595;SDS011;9945;46.010;8.946;2023-03-01T09:29:33;18.70;;;15.47;;
19595;SDS011;9945;46.010;8.946;2023-03-01T09:32:01;17.10;;;15.37;;
19595;SDS011;9945;46.010;8.946;2023-03-01T09:34:29;17.47;;;15.67;;
19595;SDS011;9945;46.010;8.946;2023-03-01T09:37:17;16.27;;;14.60;;
19595;SDS011;9945;46.010;8.946;2023-03-01T09:39:44;17.50;;;14.60;;
19595;SDS011;9945;46.010;8.946;2023-03-01T09:42:11;16.23;;;14.50;;
19595;SDS011;9945;46.010;8.946;2023-03-01T09:44:40;15.90;;;14.27;;
19595;SDS011;9945;46.010;8.946;2023-03-01T09:47:14;13.27;;;11.98;;
19595;SDS011;9945;46.010;8.946;2023-03-01T09:49:46;15.57;;;13.23;;
19595;SDS011;9945;46.010;8.946;2023-03-01T09:52:26;15.15;;;13.73;;
19595;SDS011;9945;46.010;8.946;2023-03-01T09:54:59;17.65;;;15.18;;
19595;SDS011;9945;46.010;8.946;2023-03-01T09:57:28;16.35;;;14.65;;
19595;SDS011;9945;46.010;8.946;2023-03-01T10:00:03;18.00;;;16.30;;
19595;SDS011;9945;46.010;8.946;2023-03-01T10:02:45;17.30;;;15.65;;
19595;SDS011;9945;46.010;8.946;2023-03-01T10:05:22;18.88;;;16.02;;
19595;SDS011;9945;46.010;8.946;2023-03-01T10:08:00;14.70;;;13.30;;
19595;SDS011;9945;46.010;8.946;2023-03-01T10:10:42;16.75;;;15.02;;
19595;SDS011;9945;46.010;8.946;2023-03-01T10:13:13;17.38;;;15.55;;
19595;SDS011;9945;46.010;8.946;2023-03-01T10:15:44;15.20;;;13.88;;
19595;SDS011;9945;46.010;8.946;2023-03-01T10:18:21;15.90;;;14.40;;
19595;SDS011;9945;46.010;8.946;2023-03-01T10:20:53;16.85;;;15.45;;
19595;SDS011;9945;46.010;8.946;2023-03-01T10:23:22;17.55;;;15.75;;
19595;SDS011;9945;46.010;8.946;2023-03-01T10:28:59;15.60;;;14.02;;
19595;SDS011;9945;46.010;8.946;2023-03-01T10:31:32;17.52;;;16.02;;
19595;SDS011;9945;46.010;8.946;2023-03-01T10:34:08;19.90;;;17.75;;
19595;SDS011;9945;46.010;8.946;2023-03-01T10:36:39;17.40;;;15.88;;
19595;SDS011;9945;46.010;8.946;2023-03-01T10:39:11;18.15;;;16.23;;
19595;SDS011;9945;46.010;8.946;2023-03-01T10:41:47;18.67;;;16.80;;
19595;SDS011;9945;46.010;8.946;2023-03-01T10:47:08;18.30;;;16.25;;
19595;SDS011;9945;46.010;8.946;2023-03-01T10:49:49;17.60;;;16.05;;
19595;SDS011;9945;46.010;8.946;2023-03-01T10:52:21;18.60;;;16.75;;
19595;SDS011;9945;46.010;8.946;2023-03-01T10:54:51;18.85;;;16.92;;
19595;SDS011;9945;46.010;8.946;2023-03-01T11:00:18;15.98;;;14.48;;
19595;SDS011;9945;46.010;8.946;2023-03-01T11:02:48;19.58;;;17.55;;
19595;SDS011;9945;46.010;8.946;2023-03-01T11:05:18;19.80;;;17.63;;
19595;SDS011;9945;46.010;8.946;2023-03-01T11:07:51;22.30;;;19.08;;
19595;SDS011;9945;46.010;8.946;2023-03-01T11:10:20;18.63;;;16.85;;
19595;SDS011;9945;46.010;8.946;2023-03-01T11:12:48;18.80;;;17.08;;
19595;SDS011;9945;46.010;8.946;2023-03-01T11:15:20;17.85;;;16.35;;
19595;SDS011;9945;46.010;8.946;2023-03-01T11:17:51;17.20;;;15.60;;
19595;SDS011;9945;46.010;8.946;2023-03-01T11:20:21;17.95;;;16.45;;
19595;SDS011;9945;46.010;8.946;2023-03-01T11:22:57;18.65;;;17.05;;
19595;SDS011;9945;46.010;8.946;2023-03-01T11:25:29;17.15;;;15.55;;
19595;SDS011;9945;46.010;8.946;2023-03-01T11:28:01;15.75;;;14.52;;
19595;SDS011;9945;46.010;8.946;2023-03-01T11:30:32;17.17;;;15.88;;
19595;SDS011;9945;46.010;8.946;2023-03-01T11:33:05;17.33;;;15.73;;
19595;SDS011;9945;46.010;8.946;2023-03-01T11:35:45;18.42;;;16.58;;
19595;SDS011;9945;46.010;8.946;2023-03-01T11:38:20;16.92;;;15.43;;
19595;SDS011;9945;46.010;8.946;2023-03-01T11:40:50;16.58;;;15.07;;
19595;SDS011;9945;46.010;8.946;2023-03-01T11:43:28;15.32;;;14.02;;
19595;SDS011;9945;46.010;8.946;2023-03-01T11:46:11;15.57;;;14.18;;
19595;SDS011;9945;46.010;8.946;2023-03-01T11:49:19;18.25;;;16.55;;
19595;SDS011;9945;46.010;8.946;2023-03-01T11:52:01;17.60;;;15.63;;
19595;SDS011;9945;46.010;8.946;2023-03-01T11:54:40;16.38;;;14.98;;
19595;SDS011;9945;46.010;8.946;2023-03-01T11:57:18;15.57;;;14.05;;
19595;SDS011;9945;46.010;8.946;2023-03-01T11:59:59;15.55;;;13.98;;
19595;SDS011;9945;46.010;8.946;2023-03-01T12:02:46;14.60;;;13.38;;
19595;SDS011;9945;46.010;8.946;2023-03-01T12:05:47;15.18;;;13.85;;
19595;SDS011;9945;46.010;8.946;2023-03-01T12:08:24;14.70;;;13.40;;
19595;SDS011;9945;46.010;8.946;2023-03-01T12:11:01;15.57;;;14.07;;
19595;SDS011;9945;46.010;8.946;2023-03-01T12:13:50;14.00;;;12.65;;
19595;SDS011;9945;46.010;8.946;2023-03-01T12:16:40;17.85;;;14.75;;
19595;SDS011;9945;46.010;8.946;2023-03-01T12:19:34;13.43;;;12.05;;
19595;SDS011;9945;46.010;8.946;2023-03-01T12:22:25;14.48;;;13.18;;
19595;SDS011;9945;46.010;8.946;2023-03-01T12:25:00;14.15;;;12.45;;
19595;SDS011;9945;46.010;8.946;2023-03-01T12:27:50;16.00;;;13.00;;
19595;SDS011;9945;46.010;8.946;2023-03-01T12:30:34;13.73;;;12.02;;
19595;SDS011;9945;46.010;8.946;2023-03-01T12:33:15;13.13;;;11.82;;
19595;SDS011;9945;46.010;8.946;2023-03-01T12:36:00;14.13;;;12.88;;
19595;SDS011;9945;46.010;8.946;2023-03-01T12:38:50;13.32;;;12.13;;
19595;SDS011;9945;46.010;8.946;2023-03-01T12:41:32;14.20;;;12.45;;
19595;SDS011;9945;46.010;8.946;2023-03-01T12:44:23;14.80;;;13.20;;
19595;SDS011;9945;46.010;8.946;2023-03-01T12:47:05;13.52;;;12.23;;
19595;SDS011;9945;46.010;8.946;2023-03-01T12:49:40;16.88;;;13.63;;
19595;SDS011;9945;46.010;8.946;2023-03-01T12:52:11;15.70;;;14.23;;
19595;SDS011;9945;46.010;8.946;2023-03-01T12:54:42;16.55;;;14.95;;
19595;SDS011;9945;46.010;8.946;2023-03-01T12:57:12;18.35;;;15.80;;
19595;SDS011;9945;46.010;8.946;2023-03-01T12:59:49;15.07;;;13.48;;
19595;SDS011;9945;46.010;8.946;2023-03-01T13:02:26;16.02;;;14.38;;
19595;SDS011;9945;46.010;8.946;2023-03-01T13:05:00;15.35;;;13.75;;
19595;SDS011;9945;46.010;8.946;2023-03-01T13:07:41;14.55;;;12.27;;
19595;SDS011;9945;46.010;8.946;2023-03-01T13:10:20;14.02;;;12.70;;
19595;SDS011;9945;46.010;8.946;2023-03-01T13:13:00;15.50;;;14.00;;
19595;SDS011;9945;46.010;8.946;2023-03-01T13:15:34;15.07;;;13.68;;
19595;SDS011;9945;46.010;8.946;2023-03-01T13:18:03;15.48;;;13.85;;
19595;SDS011;9945;46.010;8.946;2023-03-01T13:20:51;16.17;;;14.20;;
19595;SDS011;9945;46.010;8.946;2023-03-01T13:23:26;14.23;;;12.82;;
19595;SDS011;9945;46.010;8.946;2023-03-01T13:26:09;12.25;;;11.15;;
19595;SDS011;9945;46.010;8.946;2023-03-01T13:34:48;13.85;;;12.05;;
19595;SDS011;9945;46.010;8.946;2023-03-01T13:37:28;15.27;;;13.68;;
19595;SDS011;9945;46.010;8.946;2023-03-01T13:39:58;13.88;;;12.50;;
19595;SDS011;9945;46.010;8.946;2023-03-01T13:42:34;15.02;;;13.52;;
19595;SDS011;9945;46.010;8.946;2023-03-01T13:45:14;19.00;;;14.25;;
19595;SDS011;9945;46.010;8.946;2023-03-01T13:47:47;14.40;;;13.02;;
19595;SDS011;9945;46.010;8.946;2023-03-01T13:50:20;14.85;;;13.35;;
19595;SDS011;9945;46.010;8.946;2023-03-01T13:52:50;19.77;;;14.23;;
19595;SDS011;9945;46.010;8.946;2023-03-01T13:55:24;15.85;;;14.20;;
19595;SDS011;9945;46.010;8.946;2023-03-01T13:57:57;17.92;;;16.02;;
19595;SDS011;9945;46.010;8.946;2023-03-01T14:00:26;16.52;;;14.88;;
19595;SDS011;9945;46.010;8.946;2023-03-01T14:03:08;17.52;;;15.82;;
19595;SDS011;9945;46.010;8.946;2023-03-01T14:05:38;15.65;;;13.73;;
19595;SDS011;9945;46.010;8.946;2023-03-01T14:08:17;18.33;;;14.50;;
19595;SDS011;9945;46.010;8.946;2023-03-01T14:10:49;15.65;;;14.15;;
19595;SDS011;9945;46.010;8.946;2023-03-01T14:13:36;15.77;;;14.23;;
19595;SDS011;9945;46.010;8.946;2023-03-01T14:16:19;15.30;;;12.75;;
19595;SDS011;9945;46.010;8.946;2023-03-01T14:19:03;20.85;;;15.85;;
19595;SDS011;9945;46.010;8.946;2023-03-01T14:21:38;17.65;;;14.90;;
19595;SDS011;9945;46.010;8.946;2023-03-01T14:24:05;18.70;;;16.02;;
19595;SDS011;9945;46.010;8.946;2023-03-01T14:26:41;19.67;;;15.68;;
19595;SDS011;9945;46.010;8.946;2023-03-01T14:29:22;19.45;;;16.65;;
19595;SDS011;9945;46.010;8.946;2023-03-01T14:31:51;19.05;;;16.02;;
19595;SDS011;9945;46.010;8.946;2023-03-01T14:34:20;22.70;;;17.20;;
19595;SDS011;9945;46.010;8.946;2023-03-01T14:36:47;17.70;;;15.90;;
19595;SDS011;9945;46.010;8.946;2023-03-01T14:39:18;19.17;;;16.75;;
19595;SDS011;9945;46.010;8.946;2023-03-01T14:41:49;19.13;;;17.13;;
19595;SDS011;9945;46.010;8.946;2023-03-01T14:44:18;17.55;;;15.75;;
19595;SDS011;9945;46.010;8.946;2023-03-01T14:46:51;19.67;;;17.58;;
19595;SDS011;9945;46.010;8.946;2023-03-01T14:49:23;18.30;;;16.40;;
19595;SDS011;9945;46.010;8.946;2023-03-01T14:51:52;17.85;;;16.00;;
19595;SDS011;9945;46.010;8.946;2023-03-01T14:54:27;18.52;;;16.63;;
19595;SDS011;9945;46.010;8.946;2023-03-01T14:57:01;19.20;;;17.20;;
19595;SDS011;9945;46.010;8.946;2023-03-01T14:59:28;19.55;;;17.50;;
19595;SDS011;9945;46.010;8.946;2023-03-01T15:01:56;18.67;;;16.77;;
19595;SDS011;9945;46.010;8.946;2023-03-01T15:04:26;18.57;;;16.67;;
19595;SDS011;9945;46.010;8.946;2023-03-01T15:06:54;26.40;;;18.20;;
19595;SDS011;9945;46.010;8.946;2023-03-01T15:09:30;18.03;;;16.03;;
19595;SDS011;9945;46.010;8.946;2023-03-01T15:12:00;20.50;;;16.80;;
19595;SDS011;9945;46.010;8.946;2023-03-01T15:15:21;17.90;;;15.90;;